^^
Datos históricos de la estación: Murcia-Puente Tocinos
Diario Informe para Junio 1, 2019 Unidades:  Métrico    Ingés   Ambas
Diario Semanal Mensual Anual
  Máxima: Mínima: Promedio:
Temperatura: 27 °C 15.7 °C 21.5 °C
Punto de rocio: 11.8 °C 2.9 °C 7.6 °C
Humedad: 67.9% 22.2% 44%
Velocidad viento: 19km/h 0km/h 7.7km/h
Racha viento: 30.6km/h - -
Viento- - ESE
Presión: 1021.9 hPa 1017.9 hPa -
Precipitación: 0.0 mm    
 
 
Tabla de datos para Junio 1, 2019
Hora Temperatura Punto de rocio Presión Viento Velocidad viento Racha viento Humedad Intensidad lluvia(por hora) Nubes
00:04 19.3 °C 11.6 °C 1021.9 hPa ENE 2.2 km/h 5.6 km/h 61% 0.0 mm
00:09 19.3 °C 11.6 °C 1021.9 hPa NNE 2.5 km/h 5.8 km/h 61% 0.0 mm
00:14 19.3 °C 11.7 °C 1021.9 hPa NNE 2.9 km/h 6.4 km/h 61.4% 0.0 mm
00:19 19.3 °C 11.8 °C 1021.9 hPa NNE 1.9 km/h 3.9 km/h 62% 0.0 mm
00:24 19.2 °C 11.8 °C 1021.8 hPa Calm   7.4 km/h 62% 0.0 mm
00:29 19.2 °C 11.7 °C 1021.8 hPa NO 1.2 km/h 8 km/h 62% 0.0 mm
00:34 19.2 °C 11.7 °C 1021.9 hPa NO 3.2 km/h 4.8 km/h 62.1% 0.0 mm
00:39 19.2 °C 11.7 °C 1021.9 hPa NO 2.1 km/h 3.2 km/h 62% 0.0 mm
00:44 19.1 °C 11.7 °C 1021.9 hPa Calm   3.7 km/h 62% 0.0 mm
00:49 19.1 °C 11.7 °C 1021.9 hPa Calm   3.2 km/h 62% 0.0 mm
00:54 19.1 °C 11.7 °C 1021.9 hPa Calm     62% 0.0 mm
00:59 19.1 °C 11.6 °C 1021.9 hPa Calm     62% 0.0 mm
01:04 19 °C 11.3 °C 1021.9 hPa Calm   5 km/h 61% 0.0 mm
01:09 18.9 °C 10.9 °C 1021.9 hPa Este 0.8 km/h 6.4 km/h 60% 0.0 mm
01:14 18.7 °C 10.9 °C 1021.9 hPa Este 2.2 km/h 8 km/h 60.3% 0.0 mm
01:19 18.7 °C 11 °C 1021.9 hPa Este 2.6 km/h 8 km/h 61% 0.0 mm
01:24 18.6 °C 10.9 °C 1021.8 hPa ESE 3.2 km/h 7.4 km/h 61% 0.0 mm
01:29 18.4 °C 10.8 °C 1021.8 hPa SE 3.1 km/h 8 km/h 61% 0.0 mm
01:34 18.4 °C 10.8 °C 1021.8 hPa SE 2.9 km/h 3.2 km/h 61.1% 0.0 mm
01:39 18.3 °C 10.9 °C 1021.6 hPa SE 1.8 km/h   62% 0.0 mm
01:44 18.3 °C 10.9 °C 1021.6 hPa Calm     62% 0.0 mm
01:49 18.3 °C 10.9 °C 1021.6 hPa Calm     62% 0.0 mm
01:54 18.2 °C 11 °C 1021.6 hPa Calm   4.7 km/h 62.6% 0.0 mm
01:59 18.2 °C 11 °C 1021.6 hPa SE 0.9 km/h 4.8 km/h 62.9% 0.0 mm
02:04 18.1 °C 10.9 °C 1021.6 hPa SE 2.2 km/h 5.6 km/h 63% 0.0 mm
02:09 18 °C 10.8 °C 1021.6 hPa SE 2.5 km/h 5.6 km/h 63% 0.0 mm
02:14 17.9 °C 10.8 °C 1021.6 hPa SE 2.9 km/h 5.8 km/h 63% 0.0 mm
02:19 17.9 °C 10.9 °C 1021.6 hPa SE 3 km/h 6.4 km/h 63.8% 0.0 mm
02:24 17.8 °C 10.9 °C 1021.5 hPa SE 3.2 km/h 6.4 km/h 64% 0.0 mm
02:29 17.8 °C 10.9 °C 1021.5 hPa SE 3.1 km/h 5 km/h 64% 0.0 mm
02:34 17.7 °C 11 °C 1021.5 hPa SE 2.9 km/h 5.6 km/h 64.9% 0.0 mm
02:39 17.7 °C 11 °C 1021.3 hPa SE 1.9 km/h 3.2 km/h 65% 0.0 mm
02:44 17.6 °C 11 °C 1021.3 hPa Calm   3.9 km/h 65% 0.0 mm
02:49 17.6 °C 10.9 °C 1021.3 hPa Calm   5.6 km/h 65% 0.0 mm
02:54 17.6 °C 11 °C 1021.0 hPa Calm   4.8 km/h 65.3% 0.0 mm
02:59 17.5 °C 11.1 °C 1021.0 hPa Calm   3.2 km/h 66% 0.0 mm
03:04 17.4 °C 11 °C 1021.0 hPa Calm   2.3 km/h 66% 0.0 mm
03:09 17.4 °C 11 °C 1021.0 hPa Calm   3.9 km/h 66% 0.0 mm
03:14 17.4 °C 10.7 °C 1021.0 hPa Calm   7.4 km/h 65.1% 0.0 mm
03:19 17.4 °C 10.9 °C 1021.0 hPa SE 0.8 km/h 8 km/h 65.7% 0.0 mm
03:24 17.3 °C 10.9 °C 1021.0 hPa SE 2.2 km/h 4.8 km/h 66% 0.0 mm
03:29 17.2 °C 10.9 °C 1021.0 hPa SE 1.4 km/h 3.2 km/h 66.2% 0.0 mm
03:34 17.2 °C 10.8 °C 1021.0 hPa Calm   5.6 km/h 66.3% 0.0 mm
03:39 17.1 °C 10.7 °C 1020.9 hPa Calm   7.4 km/h 66% 0.0 mm
03:44 17 °C 10.6 °C 1020.9 hPa Calm   8 km/h 66% 0.0 mm
03:49 17 °C 10.6 °C 1020.9 hPa SE 0.8 km/h 4.8 km/h 66% 0.0 mm
03:54 16.9 °C 10.7 °C 1020.8 hPa SE 2.2 km/h 5.8 km/h 66.7% 0.0 mm
03:59 16.9 °C 10.6 °C 1020.8 hPa ESE 2.5 km/h 7.4 km/h 66.7% 0.0 mm
04:04 16.8 °C 10.5 °C 1020.9 hPa ESE 2.9 km/h 8 km/h 66.6% 0.0 mm
04:09 16.7 °C 10.4 °C 1020.9 hPa ESE 3 km/h 8.4 km/h 66.5% 0.0 mm
04:14 16.6 °C 10.1 °C 1020.9 hPa SE 3.2 km/h 9.3 km/h 65.2% 0.0 mm
04:19 16.6 °C 10.1 °C 1020.9 hPa SE 3.8 km/h 9.7 km/h 65.6% 0.0 mm
04:24 16.6 °C 10.2 °C 1020.8 hPa SE 5 km/h 8 km/h 65.7% 0.0 mm
04:29 16.6 °C 10 °C 1020.8 hPa SE 4 km/h 3.7 km/h 65% 0.0 mm
04:34 16.6 °C 10.2 °C 1020.8 hPa SE 2.2 km/h 5.6 km/h 65.8% 0.0 mm
04:39 16.5 °C 10.2 °C 1020.7 hPa SE 2.2 km/h 4.8 km/h 66.5% 0.0 mm
04:44 16.4 °C 10.3 °C 1020.7 hPa SE 2.2 km/h 3.2 km/h 67% 0.0 mm
04:49 16.3 °C 10.2 °C 1020.7 hPa SE 1.4 km/h   67% 0.0 mm
04:54 16.3 °C 10.3 °C 1020.5 hPa Calm   2.3 km/h 67.7% 0.0 mm
04:59 16.3 °C 10.4 °C 1020.5 hPa Calm   5.6 km/h 67.9% 0.0 mm
05:04 16.3 °C 10.2 °C 1020.6 hPa Calm   5.6 km/h 67% 0.0 mm
05:09 16.3 °C 10.2 °C 1020.6 hPa SE 1.1 km/h 5.8 km/h 67% 0.0 mm
05:14 16.3 °C 10.2 °C 1020.6 hPa SE 3.2 km/h 7.4 km/h 67% 0.0 mm
05:19 16.3 °C 10 °C 1020.6 hPa SE 3.5 km/h 8 km/h 66.6% 0.0 mm
05:24 16.2 °C 10 °C 1020.6 hPa SE 3.9 km/h 8 km/h 66.7% 0.0 mm
05:29 16.2 °C 9.7 °C 1020.6 hPa SSE 4.1 km/h 8 km/h 65.2% 0.0 mm
05:34 16.2 °C 9.8 °C 1020.6 hPa SSE 4.7 km/h 8 km/h 65.8% 0.0 mm
05:39 16.1 °C 9.5 °C 1020.6 hPa SSE 4.3 km/h 8 km/h 65% 0.0 mm
05:44 16.1 °C 9.5 °C 1020.6 hPa SSE 3.9 km/h 8 km/h 65% 0.0 mm
05:49 16.1 °C 9.5 °C 1020.6 hPa SSE 3.9 km/h 6.4 km/h 65% 0.0 mm
05:54 16 °C 9.4 °C 1020.6 hPa SSE 3.9 km/h 6.4 km/h 65% 0.0 mm
05:59 15.9 °C 9.3 °C 1020.6 hPa SSE 3.5 km/h 5.6 km/h 65% 0.0 mm
06:04 15.9 °C 9.5 °C 1020.7 hPa SSE 2.9 km/h 5 km/h 65.6% 0.0 mm
06:09 15.9 °C 9.6 °C 1020.7 hPa SSE 3 km/h 7.4 km/h 66% 0.0 mm
06:14 15.9 °C 9.5 °C 1020.7 hPa SSE 3.2 km/h 8 km/h 66% 0.0 mm
06:19 15.8 °C 9.4 °C 1020.7 hPa SSE 4.1 km/h 9.5 km/h 66% 0.0 mm
06:24 15.8 °C 9.4 °C 1020.6 hPa Sur 5.8 km/h 9.7 km/h 66% 0.0 mm
06:29 15.7 °C 9.3 °C 1020.6 hPa SSO 5.5 km/h 10 km/h 65.8% 0.0 mm
06:34 15.7 °C 9.1 °C 1020.8 hPa SSO 5 km/h 10 km/h 65% 0.0 mm
06:39 15.7 °C 9.1 °C 1020.8 hPa SSO 5.5 km/h 10 km/h 65% 0.0 mm
06:44 15.8 °C 9.1 °C 1020.8 hPa SSO 6.5 km/h 9.7 km/h 64.8% 0.0 mm
06:49 15.8 °C 9 °C 1020.8 hPa SO 6.2 km/h 9.7 km/h 64% 0.0 mm
06:54 15.9 °C 9.1 °C 1020.8 hPa SSO 5.8 km/h 9.7 km/h 64% 0.0 mm
06:59 15.9 °C 9 °C 1020.8 hPa SSO 5.8 km/h 10 km/h 63.6% 0.0 mm
07:04 16 °C 8.9 °C 1020.9 hPa SSO 5.8 km/h 10 km/h 63% 0.0 mm
07:09 16 °C 9.1 °C 1020.9 hPa SO 6 km/h 9.7 km/h 63.7% 0.0 mm
07:14 16.1 °C 9.3 °C 1020.9 hPa SO 6.5 km/h 13.7 km/h 64% 0.0 mm
07:19 16.1 °C 9.1 °C 1021.1 hPa SO 6.6 km/h 14.5 km/h 63.4% 0.0 mm
07:24 16.1 °C 9.1 °C 1021.1 hPa SO 6.9 km/h 13 km/h 63% 0.0 mm
07:29 16.2 °C 9.2 °C 1021.1 hPa SO 7.2 km/h 12.9 km/h 63% 0.0 mm
07:34 16.2 °C 9.2 °C 1021.1 hPa SO 7.6 km/h 11.3 km/h 63% 0.0 mm
07:39 16.3 °C 9.1 °C 1021.1 hPa SO 6.9 km/h 11.3 km/h 62.1% 0.0 mm
07:44 16.4 °C 9.1 °C 1021.1 hPa SO 5.8 km/h 11.3 km/h 62% 0.0 mm
07:49 16.6 °C 9.2 °C 1021.1 hPa SO 5.8 km/h 11.9 km/h 62% 0.0 mm
07:54 16.6 °C 9.3 °C 1021.1 hPa SO 5.8 km/h 11.9 km/h 62% 0.0 mm
07:59 16.7 °C 9.4 °C 1021.1 hPa SO 5.8 km/h 11.3 km/h 61.9% 0.0 mm
08:04 16.8 °C 9.4 °C 1021.2 hPa SO 5.8 km/h 11.3 km/h 61.6% 0.0 mm
08:09 16.8 °C 9.3 °C 1021.2 hPa SO 6.2 km/h 11.3 km/h 61.3% 0.0 mm
08:14 16.8 °C 9.5 °C 1021.2 hPa OSO 6.9 km/h 11.3 km/h 62% 0.0 mm
08:19 16.9 °C 9.5 °C 1021.5 hPa SSO 6.5 km/h 10.3 km/h 61.4% 0.0 mm
08:24 17.1 °C 9.4 °C 1021.5 hPa SSO 5.8 km/h 11.3 km/h 60.6% 0.0 mm
08:29 17.2 °C 9.4 °C 1021.5 hPa SSO 6 km/h 11.3 km/h 60% 0.0 mm
08:34 17.3 °C 9.2 °C 1021.5 hPa SO 6.5 km/h 10 km/h 59.2% 0.0 mm
08:39 17.4 °C 9.3 °C 1021.4 hPa SO 6.5 km/h 11.9 km/h 59% 0.0 mm
08:44 17.4 °C 9.3 °C 1021.4 hPa OSO 6.5 km/h 11.3 km/h 59% 0.0 mm
08:49 17.6 °C 9.5 °C 1021.4 hPa OSO 6.2 km/h 11.3 km/h 59% 0.0 mm
08:54 17.7 °C 9.3 °C 1021.4 hPa OSO 5.8 km/h 13 km/h 58% 0.0 mm
08:59 17.8 °C 9.3 °C 1021.4 hPa OSO 6 km/h 12.9 km/h 57.5% 0.0 mm
09:04 17.9 °C 9.3 °C 1021.4 hPa OSO 6.5 km/h 11.3 km/h 57% 0.0 mm
09:09 18 °C 9.2 °C 1021.4 hPa OSO 6.6 km/h 10.3 km/h 56.5% 0.0 mm
09:14 18.2 °C 9.2 °C 1021.4 hPa OSO 6.9 km/h 9.7 km/h 55.6% 0.0 mm
09:19 18.4 °C 9.4 °C 1021.4 hPa SO 6.5 km/h 10.3 km/h 55.7% 0.0 mm
09:24 18.7 °C 9.2 °C 1021.4 hPa SO 5.8 km/h 11.3 km/h 54.3% 0.0 mm
09:29 18.7 °C 9.2 °C 1021.4 hPa SO 6.2 km/h 11.3 km/h 54% 0.0 mm
09:34 18.8 °C 9.3 °C 1021.4 hPa SO 6.9 km/h 11.3 km/h 54% 0.0 mm
09:39 19 °C 9.5 °C 1021.4 hPa SSO 6.8 km/h 11.9 km/h 53.9% 0.0 mm
09:44 19.2 °C 9.5 °C 1021.4 hPa SSO 6.5 km/h 11.3 km/h 53.2% 0.0 mm
09:49 19.4 °C 9.6 °C 1021.4 hPa SSO 6.5 km/h 11.9 km/h 53% 0.0 mm
09:54 19.6 °C 9.8 °C 1021.4 hPa SSO 6.5 km/h 11.3 km/h 53% 0.0 mm
09:59 19.7 °C 9.8 °C 1021.4 hPa Sur 6.9 km/h 11.3 km/h 53% 0.0 mm
10:04 19.9 °C 9.9 °C 1021.4 hPa OSO 7.6 km/h 10 km/h 52.5% 0.0 mm
10:09 20.2 °C 9.9 °C 1021.3 hPa Oeste 6.5 km/h 10 km/h 51.8% 0.0 mm
10:14 20.3 °C 9.7 °C 1021.3 hPa Oeste 4.7 km/h 9.7 km/h 50.6% 0.0 mm
10:19 20.4 °C 9.4 °C 1021.3 hPa Oeste 4.8 km/h 9.7 km/h 49.1% 0.0 mm
10:24 20.7 °C 9.3 °C 1021.3 hPa NO 5 km/h 9.7 km/h 47.9% 0.0 mm
10:29 21.1 °C 9.2 °C 1021.3 hPa ONO 4.6 km/h 11.9 km/h 46.7% 0.0 mm
10:34 21.3 °C 9.2 °C 1021.3 hPa SO 3.9 km/h 11.3 km/h 45.8% 0.0 mm
10:39 21.6 °C 9.1 °C 1021.2 hPa SSE 4.1 km/h 11.1 km/h 44.7% 0.0 mm
10:44 21.9 °C 9.1 °C 1021.2 hPa ENE 4.7 km/h 11.3 km/h 43.9% 0.0 mm
10:49 22.2 °C 8 °C 1021.2 hPa ENE 4.4 km/h 10 km/h 40% 0.0 mm
10:54 22.4 °C 7.7 °C 1021.1 hPa Este 3.9 km/h 11.1 km/h 38.8% 0.0 mm
10:59 22.6 °C 6.7 °C 1021.1 hPa SE 4.6 km/h 11.3 km/h 35.8% 0.0 mm
11:04 22.7 °C 6.3 °C 1021.2 hPa ESE 5.8 km/h 11.1 km/h 34.7% 0.0 mm
11:09 22.8 °C 6.2 °C 1021.2 hPa ENE 5.8 km/h 11.3 km/h 34.3% 0.0 mm
11:14 23 °C 6 °C 1021.2 hPa Este 5.8 km/h 9.7 km/h 33.4% 0.0 mm
11:19 23.2 °C 6.3 °C 1021.2 hPa North 5.5 km/h 11.1 km/h 33.6% 0.0 mm
11:24 23.3 °C 6.3 °C 1021.2 hPa NE 5 km/h 11.3 km/h 33.4% 0.0 mm
11:29 23.5 °C 6.3 °C 1021.2 hPa NE 5.5 km/h 11.9 km/h 33% 0.0 mm
11:34 23.5 °C 6.4 °C 1021.2 hPa NE 6.5 km/h 11.3 km/h 33.3% 0.0 mm
11:39 23.7 °C 6.4 °C 1021.2 hPa ESE 5.8 km/h 10 km/h 33% 0.0 mm
11:44 24 °C 6.6 °C 1021.2 hPa North 4.7 km/h 11.1 km/h 32.6% 0.0 mm
11:49 24.4 °C 6.3 °C 1021.2 hPa ENE 4.4 km/h 14 km/h 31.3% 0.0 mm
11:54 24.4 °C 5.8 °C 1021.1 hPa NE 3.9 km/h 18.5 km/h 30.2% 0.0 mm
11:59 24.3 °C 5.9 °C 1021.1 hPa NE 6 km/h 19.3 km/h 30.7% 0.0 mm
12:04 24.3 °C 5.9 °C 1021.1 hPa NE 9.5 km/h 20.4 km/h 30.7% 0.0 mm
12:09 24.3 °C 5.7 °C 1021.0 hPa NE 9.2 km/h 20.9 km/h 30.2% 0.0 mm
12:14 24.4 °C 5.4 °C 1021.0 hPa ESE 8.7 km/h 16.7 km/h 29.3% 0.0 mm
12:19 24.5 °C 5.9 °C 1021.0 hPa ENE 9 km/h 16.7 km/h 30.2% 0.0 mm
12:24 24.7 °C 5.9 °C 1020.8 hPa Este 9.5 km/h 15.6 km/h 30% 0.0 mm
12:29 24.9 °C 6.1 °C 1020.8 hPa Este 8.8 km/h 18.5 km/h 30% 0.0 mm
12:34 24.9 °C 6.2 °C 1020.8 hPa ENE 7.6 km/h 19.3 km/h 30.1% 0.0 mm
12:39 24.8 °C 6.1 °C 1020.8 hPa NE 8.5 km/h 19.3 km/h 30% 0.0 mm
12:44 24.8 °C 6.3 °C 1020.8 hPa NNE 10 km/h 19.3 km/h 30.4% 0.0 mm
12:49 25 °C 6.1 °C 1020.8 hPa ENE 8.9 km/h 18.5 km/h 29.8% 0.0 mm
12:54 25.2 °C 5.2 °C 1020.7 hPa Este 6.9 km/h 22.2 km/h 27.7% 0.0 mm
12:59 25.2 °C 5.7 °C 1020.7 hPa ENE 8.1 km/h 22.5 km/h 28.7% 0.0 mm
13:04 25.1 °C 5.7 °C 1020.7 hPa ENE 10 km/h 20.9 km/h 28.7% 0.0 mm
13:09 25.2 °C 5.5 °C 1020.5 hPa NE 9.5 km/h 20.9 km/h 28.2% 0.0 mm
13:14 25.3 °C 5.5 °C 1020.5 hPa NE 8.7 km/h 24.5 km/h 28.2% 0.0 mm
13:19 25.3 °C 5.2 °C 1020.5 hPa NE 10.3 km/h 24.1 km/h 27.4% 0.0 mm
13:24 25.3 °C 5.5 °C 1020.5 hPa NNE 13 km/h 24.1 km/h 28% 0.0 mm
13:29 25.5 °C 5.8 °C 1020.5 hPa ENE 11.9 km/h 25.9 km/h 28.2% 0.0 mm
13:34 25.6 °C 5.8 °C 1020.5 hPa NE 10 km/h 25.7 km/h 28.2% 0.0 mm
13:39 25.7 °C 5.8 °C 1020.3 hPa ENE 10.1 km/h 24.1 km/h 27.9% 0.0 mm
13:44 25.8 °C 5.2 °C 1020.3 hPa Este 10.3 km/h 27.8 km/h 26.8% 0.0 mm
13:49 25.7 °C 4.9 °C 1020.3 hPa Este 10.6 km/h 27.4 km/h 26.4% 0.0 mm
13:54 25.8 °C 4.6 °C 1020.2 hPa Este 11.1 km/h 22.2 km/h 25.6% 0.0 mm
13:59 26 °C 5 °C 1020.2 hPa NE 10.7 km/h 22.5 km/h 26% 0.0 mm
14:04 26.2 °C 5.1 °C 1020.2 hPa ENE 10 km/h 22.2 km/h 25.9% 0.0 mm
14:09 26.1 °C 5.1 °C 1020.0 hPa ENE 9.8 km/h 24.1 km/h 26% 0.0 mm
14:14 26.1 °C 5.1 °C 1020.0 hPa NE 9.5 km/h 27.8 km/h 26.1% 0.0 mm
14:19 25.9 °C 5 °C 1020.0 hPa NE 11.2 km/h 28.2 km/h 26.1% 0.0 mm
14:24 25.9 °C 5.3 °C 1020.0 hPa ENE 14 km/h 27.8 km/h 26.7% 0.0 mm
14:29 26.3 °C 5.4 °C 1020.0 hPa ENE 13.3 km/h 27.4 km/h 26.4% 0.0 mm
14:34 26.3 °C 5.8 °C 1020.0 hPa NE 11.9 km/h 27.8 km/h 27% 0.0 mm
14:39 26.1 °C 6.1 °C 1019.8 hPa NE 12.6 km/h 27.4 km/h 27.9% 0.0 mm
14:44 26.3 °C 5.8 °C 1019.8 hPa NE 13.7 km/h 28.6 km/h 27% 0.0 mm
14:49 26.3 °C 5.7 °C 1019.8 hPa ENE 13.2 km/h 29 km/h 26.8% 0.0 mm
14:54 26.5 °C 6 °C 1019.6 hPa NE 12.2 km/h 20.4 km/h 27.2% 0.0 mm
14:59 26.7 °C 6.1 °C 1019.6 hPa ENE 11.8 km/h 24.1 km/h 27% 0.0 mm
15:04 26.6 °C 5.7 °C 1019.6 hPa NE 11.1 km/h 25.1 km/h 26.4% 0.0 mm
15:09 26.4 °C 5.4 °C 1019.5 hPa NNE 12.1 km/h 25.9 km/h 26.1% 0.0 mm
15:14 26.2 °C 5.3 °C 1019.5 hPa NE 13.7 km/h 25.9 km/h 26.2% 0.0 mm
15:19 26.4 °C 5.9 °C 1019.5 hPa NE 12.8 km/h 25.7 km/h 27% 0.0 mm
15:24 26.6 °C 5.8 °C 1019.3 hPa ENE 11.1 km/h 28.2 km/h 26.5% 0.0 mm
15:29 26.7 °C 5.6 °C 1019.3 hPa ENE 11.4 km/h 27.4 km/h 26.1% 0.0 mm
15:34 26.6 °C 5.2 °C 1019.3 hPa ENE 11.9 km/h 25.9 km/h 25.5% 0.0 mm
15:39 26.4 °C 5.3 °C 1019.2 hPa ENE 12.5 km/h 25.7 km/h 25.9% 0.0 mm
15:44 26.8 °C 4.7 °C 1019.2 hPa NE 13.7 km/h 22.5 km/h 24.4% 0.0 mm
15:49 26.7 °C 4.5 °C 1019.2 hPa ENE 13.7 km/h 24.1 km/h 24% 0.0 mm
15:54 26.7 °C 4.4 °C 1019.1 hPa ENE 13.7 km/h 24.1 km/h 24% 0.0 mm
15:59 26.8 °C 4.1 °C 1019.1 hPa NE 13.1 km/h 24.1 km/h 23.3% 0.0 mm
16:04 26.8 °C 4.1 °C 1019.1 hPa ENE 12.2 km/h 29.8 km/h 23.3% 0.0 mm
16:09 26.8 °C 4 °C 1018.9 hPa NE 12.2 km/h 30.6 km/h 23% 0.0 mm
16:14 26.7 °C 4.3 °C 1018.9 hPa NE 12.2 km/h 27.8 km/h 23.7% 0.0 mm
16:19 26.8 °C 4.1 °C 1018.9 hPa ENE 12.5 km/h 22 km/h 23.2% 0.0 mm
16:24 26.9 °C 4.3 °C 1018.8 hPa Este 13 km/h 22.5 km/h 23.4% 0.0 mm
16:29 26.9 °C 4.1 °C 1018.8 hPa ENE 13 km/h 29.6 km/h 23.2% 0.0 mm
16:34 27 °C 4.2 °C 1018.8 hPa ENE 13 km/h 29 km/h 23.2% 0.0 mm
16:39 26.9 °C 4.2 °C 1018.7 hPa Este 12.8 km/h 24.1 km/h 23.3% 0.0 mm
16:44 26.9 °C 3.9 °C 1018.7 hPa ENE 12.2 km/h 27.8 km/h 22.8% 0.0 mm
16:49 26.8 °C 4.2 °C 1018.7 hPa NE 12.5 km/h 27.4 km/h 23.4% 0.0 mm
16:54 26.8 °C 4.1 °C 1018.6 hPa NE 13 km/h 27.8 km/h 23.3% 0.0 mm
16:59 26.8 °C 4.1 °C 1018.6 hPa NE 13.3 km/h 28.2 km/h 23.3% 0.0 mm
17:04 26.6 °C 3.5 °C 1018.6 hPa NE 13.7 km/h 29.8 km/h 22.7% 0.0 mm
17:09 26.5 °C 3.9 °C 1018.5 hPa NE 14.5 km/h 30.6 km/h 23.4% 0.0 mm
17:14 26.7 °C 3.9 °C 1018.5 hPa NE 16.1 km/h 24.1 km/h 23.1% 0.0 mm
17:19 26.7 °C 3.9 °C 1018.5 hPa NE 15.9 km/h 30.6 km/h 23.2% 0.0 mm
17:24 26.6 °C 3.5 °C 1018.4 hPa ENE 15.6 km/h 30.6 km/h 22.7% 0.0 mm
17:29 26.5 °C 3.4 °C 1018.4 hPa NE 15.3 km/h 29.6 km/h 22.6% 0.0 mm
17:34 26.4 °C 3.6 °C 1018.4 hPa NE 14.8 km/h 29.6 km/h 23% 0.0 mm
17:39 26.3 °C 3.5 °C 1018.4 hPa NE 16.3 km/h 29.6 km/h 23% 0.0 mm
17:44 26.3 °C 3.6 °C 1018.4 hPa NE 19 km/h 29 km/h 23.2% 0.0 mm
17:49 26.3 °C 3.7 °C 1018.4 hPa NE 17.9 km/h 27.4 km/h 23.3% 0.0 mm
17:54 26.3 °C 3.6 °C 1018.3 hPa NE 16.1 km/h 25.7 km/h 23.1% 0.0 mm
17:59 26.6 °C 3.8 °C 1018.3 hPa NE 15.6 km/h 25.9 km/h 23% 0.0 mm
18:04 26.4 °C 3.7 °C 1018.3 hPa NE 14.8 km/h 26.2 km/h 23.1% 0.0 mm
18:09 26.3 °C 3.5 °C 1018.3 hPa ENE 15.3 km/h 27.8 km/h 23.1% 0.0 mm
18:14 26.2 °C 3.5 °C 1018.3 hPa NE 16.1 km/h 27.4 km/h 23.1% 0.0 mm
18:19 26.2 °C 3.3 °C 1018.3 hPa ENE 16.1 km/h 25.9 km/h 22.9% 0.0 mm
18:24 26.2 °C 2.9 °C 1018.2 hPa ENE 16.1 km/h 29.6 km/h 22.2% 0.0 mm
18:29 26.2 °C 3.2 °C 1018.2 hPa ENE 15.2 km/h 29 km/h 22.7% 0.0 mm
18:34 26.2 °C 3.5 °C 1018.2 hPa NE 13.7 km/h 29.6 km/h 23% 0.0 mm
18:39 26.1 °C 3.3 °C 1018.1 hPa NE 14.4 km/h 29 km/h 23% 0.0 mm
18:44 26.1 °C 3.7 °C 1018.1 hPa NE 15.6 km/h 28.2 km/h 23.6% 0.0 mm
18:49 26 °C 3.6 °C 1018.1 hPa NE 15.8 km/h 27.8 km/h 23.5% 0.0 mm
18:54 25.9 °C 3.8 °C 1018.0 hPa NE 16.1 km/h 27.4 km/h 24% 0.0 mm
18:59 25.9 °C 3.9 °C 1018.0 hPa NE 15.6 km/h 25.9 km/h 24.2% 0.0 mm
19:04 25.8 °C 3.8 °C 1018.0 hPa NE 14.8 km/h 25.9 km/h 24.1% 0.0 mm
19:09 25.8 °C 3.7 °C 1017.9 hPa NE 14.5 km/h 25.7 km/h 24% 0.0 mm
19:14 25.8 °C 3.7 °C 1017.9 hPa NE 14 km/h 28.2 km/h 24% 0.0 mm
19:19 25.6 °C 3.6 °C 1018.0 hPa NE 14.6 km/h 27.8 km/h 24.1% 0.0 mm
19:24 25.4 °C 3.7 °C 1018.0 hPa NE 15.6 km/h 27.4 km/h 24.6% 0.0 mm
19:29 25.4 °C 4.2 °C 1018.0 hPa NE 15.6 km/h 25.9 km/h 25.4% 0.0 mm
19:34 25.3 °C 4.3 °C 1018.0 hPa NE 15.6 km/h 26.2 km/h 25.7% 0.0 mm
19:39 25.2 °C 4.3 °C 1018.0 hPa NE 15.3 km/h 25.7 km/h 26% 0.0 mm
19:44 25.2 °C 4.3 °C 1018.0 hPa NE 14.8 km/h 23.3 km/h 26% 0.0 mm
19:49 25.2 °C 4.3 °C 1018.2 hPa NE 13.9 km/h 24.5 km/h 26% 0.0 mm
19:54 25.1 °C 4.2 °C 1018.2 hPa NE 12.2 km/h 24.1 km/h 26% 0.0 mm
19:59 25.1 °C 4.3 °C 1018.2 hPa NE 12.2 km/h 24.1 km/h 26.3% 0.0 mm
20:04 24.9 °C 4.6 °C 1018.3 hPa NE 12.2 km/h 22.5 km/h 27% 0.0 mm
20:09 24.8 °C 4.5 °C 1018.3 hPa NE 12.2 km/h 22.5 km/h 27% 0.0 mm
20:14 24.7 °C 4.6 °C 1018.3 hPa NE 12.2 km/h 20.9 km/h 27.3% 0.0 mm
20:19 24.6 °C 4.9 °C 1018.3 hPa ENE 11.6 km/h 22.2 km/h 28% 0.0 mm
20:24 24.4 °C 4.7 °C 1018.3 hPa NE 10.3 km/h 24.1 km/h 28% 0.0 mm
20:29 24.4 °C 4.9 °C 1018.3 hPa NE 10.3 km/h 24.1 km/h 28.4% 0.0 mm
20:34 24.3 °C 5 °C 1018.4 hPa NE 10.3 km/h 22.2 km/h 28.9% 0.0 mm
20:39 24.1 °C 4.9 °C 1018.4 hPa NE 11.3 km/h 22.5 km/h 28.9% 0.0 mm
20:44 23.9 °C 5 °C 1018.4 hPa NE 13 km/h 20.9 km/h 29.4% 0.0 mm
20:49 23.9 °C 5.3 °C 1018.6 hPa NE 11.9 km/h 19.3 km/h 30% 0.0 mm
20:54 23.8 °C 5.2 °C 1018.6 hPa NE 10 km/h 20.4 km/h 30% 0.0 mm
20:59 23.6 °C 5.2 °C 1018.6 hPa NE 11.1 km/h 20.9 km/h 30.3% 0.0 mm
21:04 23.5 °C 5.3 °C 1018.6 hPa NE 13 km/h 19.3 km/h 31% 0.0 mm
21:09 23.3 °C 5.6 °C 1018.6 hPa NE 12 km/h 16.1 km/h 31.8% 0.0 mm
21:14 23.2 °C 5.6 °C 1018.6 hPa NE 10.3 km/h 19 km/h 32% 0.0 mm
21:19 23.1 °C 5.8 °C 1018.6 hPa NE 10.2 km/h 19.3 km/h 32.7% 0.0 mm
21:24 22.9 °C 6.1 °C 1018.6 hPa NE 10 km/h 14.5 km/h 33.7% 0.0 mm
21:29 22.7 °C 6.2 °C 1018.6 hPa NE 9.4 km/h 13.7 km/h 34.4% 0.0 mm
21:34 22.6 °C 6.3 °C 1018.6 hPa NE 8.4 km/h 14.5 km/h 35% 0.0 mm
21:39 22.4 °C 6.6 °C 1018.6 hPa NE 8.4 km/h 12.9 km/h 36% 0.0 mm
21:44 22.3 °C 6.8 °C 1018.6 hPa NE 8.4 km/h 13 km/h 36.7% 0.0 mm
21:49 22.2 °C 7.1 °C 1018.8 hPa NE 7.8 km/h 13 km/h 37.7% 0.0 mm
21:54 22.1 °C 7.2 °C 1018.8 hPa NE 6.9 km/h 12.9 km/h 38.5% 0.0 mm
21:59 21.9 °C 7.4 °C 1018.8 hPa NE 6.9 km/h 11.3 km/h 39.2% 0.0 mm
22:04 21.7 °C 7.6 °C 1018.8 hPa NE 6.9 km/h 11.9 km/h 40% 0.0 mm
22:09 21.6 °C 7.8 °C 1018.8 hPa NE 6.9 km/h 11.9 km/h 40.9% 0.0 mm
22:14 21.5 °C 7.8 °C 1018.8 hPa NE 6.9 km/h 13 km/h 41.5% 0.0 mm
22:19 21.3 °C 7.9 °C 1019.0 hPa NE 7.5 km/h 12.9 km/h 42% 0.0 mm
22:24 21.3 °C 8 °C 1019.0 hPa NE 8.4 km/h 13.7 km/h 42.4% 0.0 mm
22:29 21.2 °C 8.1 °C 1019.0 hPa NE 8.5 km/h 14.5 km/h 43% 0.0 mm
22:34 21.2 °C 8.1 °C 1019.1 hPa NE 8.7 km/h 14.5 km/h 43% 0.0 mm
22:39 21.2 °C 8.1 °C 1019.1 hPa NE 8.1 km/h 11.3 km/h 43% 0.0 mm
22:44 21.1 °C 8 °C 1019.1 hPa NE 6.9 km/h 13 km/h 43% 0.0 mm
22:49 21.1 °C 8 °C 1019.3 hPa NE 7.2 km/h 13 km/h 43% 0.0 mm
22:54 21 °C 8 °C 1019.3 hPa NE 7.6 km/h 11.3 km/h 43% 0.0 mm
22:59 21 °C 7.9 °C 1019.3 hPa NE 7.3 km/h 10.3 km/h 43% 0.0 mm
23:04 20.9 °C 7.8 °C 1019.3 hPa NE 6.9 km/h 11.9 km/h 43% 0.0 mm
23:09 20.9 °C 7.9 °C 1019.3 hPa NE 7.2 km/h 11.3 km/h 43.3% 0.0 mm
23:14 20.8 °C 8.1 °C 1019.3 hPa NE 7.6 km/h 13.7 km/h 44% 0.0 mm
23:19 20.8 °C 8.1 °C 1019.5 hPa NE 8 km/h 14.8 km/h 44% 0.0 mm
23:24 20.9 °C 8.2 °C 1019.5 hPa NE 8.7 km/h 14.8 km/h 44% 0.0 mm
23:29 20.8 °C 8.4 °C 1019.5 hPa NE 9 km/h 14.8 km/h 44.8% 0.0 mm
23:34 20.7 °C 8.3 °C 1019.6 hPa NE 9.5 km/h 14.5 km/h 45% 0.0 mm
23:39 20.6 °C 8.2 °C 1019.6 hPa NE 9.2 km/h 13 km/h 45% 0.0 mm
23:44 20.6 °C 8.2 °C 1019.6 hPa NE 8.7 km/h 13 km/h 45% 0.0 mm
23:49 20.6 °C 8.5 °C 1019.7 hPa NE 8.3 km/h 11.9 km/h 45.8% 0.0 mm
23:54 20.7 °C 8.7 °C 1019.7 hPa NE 7.6 km/h 13 km/h 46% 0.0 mm
23:59 20.7 °C 8.7 °C 1019.7 hPa NE 7.3 km/h 12.9 km/h 46% 0.0 mm
Murcia-Puente Tocinos, España
Compliments of Weather Underground - 2.75 mb

La estación de MeteoMurcia.com, publica sus datos en los siguientes proyectos:

Weather Underground PWS IMURCIAP2 Meteoclimatic www.awekas.at

W3Counter
Web Analytics